createdAt,value
2019-02-04T00:01:20.408Z,100442.48
2019-02-04T00:05:23.195Z,100451.19
2019-02-04T00:09:26.040Z,100464.81
2019-02-04T00:13:29.167Z,100477.03
2019-02-04T00:17:32.008Z,100478.84
2019-02-04T00:21:34.868Z,100476.75
2019-02-04T00:25:37.808Z,100479.45
2019-02-04T00:29:40.532Z,100493.89
2019-02-04T00:33:43.342Z,100514.28
2019-02-04T00:37:46.092Z,100517.91
2019-02-04T00:41:48.988Z,100518.67
2019-02-04T00:45:51.915Z,100513.67
2019-02-04T00:49:54.743Z,100527.20
2019-02-04T00:53:57.632Z,100516.78
2019-02-04T00:58:00.605Z,100526.46
2019-02-04T01:02:03.508Z,100526.91
2019-02-04T01:06:06.940Z,100537.90
2019-02-04T01:10:11.443Z,100543.25
2019-02-04T01:14:14.441Z,100547.20
2019-02-04T01:18:16.878Z,100547.28
2019-02-04T01:22:19.356Z,100555.17
2019-02-04T01:26:21.792Z,100555.23
2019-02-04T01:30:24.639Z,100574.86
2019-02-04T01:34:27.113Z,100572.35
2019-02-04T01:38:30.200Z,100563.76
2019-02-04T01:42:32.978Z,100577.70
2019-02-04T01:46:36.004Z,100576.98
2019-02-04T01:50:39.059Z,100581.42
2019-02-04T01:54:41.810Z,100585.45
2019-02-04T01:58:44.931Z,100595.98
2019-02-04T02:02:47.807Z,100612.44
2019-02-04T02:06:50.707Z,100620.53
2019-02-04T02:10:53.600Z,100605.40
2019-02-04T02:14:56.427Z,100596.36
2019-02-04T02:18:59.249Z,100619.61
2019-02-04T02:23:02.064Z,100603.61
2019-02-04T02:27:05.265Z,100614.62
2019-02-04T02:31:08.132Z,100626.07
2019-02-04T02:35:11.349Z,100628.75
2019-02-04T02:39:14.323Z,100624.48
2019-02-04T02:43:17.111Z,100627.64
2019-02-04T02:47:20.100Z,100629.47
2019-02-04T02:51:22.961Z,100613.48
2019-02-04T02:55:25.803Z,100616.70
2019-02-04T02:59:29.071Z,100628.08
2019-02-04T03:03:32.391Z,100628.59
2019-02-04T03:07:35.416Z,100626.52
2019-02-04T03:11:38.199Z,100626.11
2019-02-04T03:15:40.942Z,100637.03
2019-02-04T03:19:43.690Z,100653.18
2019-02-04T03:23:46.555Z,100651.50
2019-02-04T03:27:49.353Z,100656.30
2019-02-04T03:31:52.255Z,100655.45
2019-02-04T03:35:55.157Z,100655.45
2019-02-04T03:39:58.008Z,100647.16
2019-02-04T03:44:00.851Z,100646.37
2019-02-04T03:48:08.991Z,100658.13
2019-02-04T03:52:08.269Z,100659.11
2019-02-04T03:56:11.238Z,100655.31
2019-02-04T04:00:17.827Z,100666.27
2019-02-04T04:04:20.802Z,100663.72
2019-02-04T04:08:23.648Z,100668.56
2019-02-04T04:12:26.512Z,100659.04
2019-02-04T04:16:29.253Z,100657.83
2019-02-04T04:20:32.072Z,100664.45
2019-02-04T04:24:34.727Z,100671.52
2019-02-04T04:28:37.663Z,100678.06
2019-02-04T04:32:40.358Z,100677.01
2019-02-04T04:36:43.244Z,100678.94
2019-02-04T04:40:46.003Z,100673.01
2019-02-04T04:44:49.143Z,100680.00
2019-02-04T04:48:51.804Z,100677.98
2019-02-04T04:52:56.058Z,100678.52
2019-02-04T04:56:58.820Z,100693.41
2019-02-04T05:01:01.575Z,100693.11
2019-02-04T05:05:05.000Z,100694.50
2019-02-04T05:09:09.195Z,100704.09
2019-02-04T05:13:11.979Z,100704.23
2019-02-04T05:17:14.733Z,100713.84
2019-02-04T05:21:17.589Z,100724.75
2019-02-04T05:25:20.782Z,100726.52
2019-02-04T05:29:23.502Z,100738.31
2019-02-04T05:33:26.185Z,100745.28
2019-02-04T05:37:29.220Z,100753.19
2019-02-04T05:41:32.263Z,100754.12
2019-02-04T05:45:35.015Z,100756.31
2019-02-04T05:49:37.833Z,100754.59
2019-02-04T05:53:40.735Z,100757.25
2019-02-04T05:57:43.532Z,100765.10
2019-02-04T06:01:46.189Z,100768.13
2019-02-04T06:05:48.911Z,100769.48
2019-02-04T06:09:51.630Z,100771.67
2019-02-04T06:13:54.596Z,100785.58
2019-02-04T06:17:57.311Z,100779.52
2019-02-04T06:22:00.202Z,100796.47
2019-02-04T06:26:02.984Z,100799.08
2019-02-04T06:30:06.872Z,100791.75
2019-02-04T06:34:09.662Z,100799.16
2019-02-04T06:38:12.902Z,100804.89
2019-02-04T06:42:15.549Z,100808.44
2019-02-04T06:46:18.232Z,100810.67
2019-02-04T06:50:20.967Z,100815.45
2019-02-04T06:54:23.882Z,100819.45
2019-02-04T06:58:26.266Z,100825.16
2019-02-04T07:02:29.231Z,100826.52
2019-02-04T07:06:31.665Z,100820.47
2019-02-04T07:10:35.231Z,100810.95
2019-02-04T07:14:37.971Z,100827.41
2019-02-04T07:18:40.531Z,100832.71
2019-02-04T07:22:43.061Z,100842.77
2019-02-04T07:26:45.557Z,100841.02
2019-02-04T07:30:47.945Z,100844.98
2019-02-04T07:34:50.559Z,100849.34
2019-02-04T07:38:53.175Z,100835.95
2019-02-04T07:42:56.188Z,100843.41
2019-02-04T07:46:58.718Z,100849.50
2019-02-04T07:51:01.310Z,100849.98
2019-02-04T07:55:03.791Z,100860.91
2019-02-04T07:59:06.496Z,100868.02
2019-02-04T08:03:09.295Z,100871.06
2019-02-04T08:07:11.789Z,100868.57
2019-02-04T08:11:14.306Z,100871.17
2019-02-04T08:15:22.532Z,100866.03
2019-02-04T08:19:24.941Z,100872.43
2019-02-04T08:23:27.412Z,100876.06
2019-02-04T08:27:29.846Z,100871.33
2019-02-04T08:31:32.646Z,100872.94
2019-02-04T08:35:35.416Z,100874.70
2019-02-04T08:39:38.393Z,100873.38
2019-02-04T08:43:41.088Z,100873.00
2019-02-04T08:47:43.923Z,100882.19
2019-02-04T08:51:46.695Z,100874.90
2019-02-04T08:55:50.565Z,100878.14
2019-02-04T08:59:52.977Z,100875.97
2019-02-04T09:03:55.441Z,100879.70
2019-02-04T09:07:57.975Z,100880.14
2019-02-04T09:12:00.580Z,100883.91
2019-02-04T09:16:03.172Z,100878.64
2019-02-04T09:20:10.097Z,100884.42
2019-02-04T09:24:11.879Z,100889.84
2019-02-04T09:28:14.999Z,100890.31
2019-02-04T09:32:17.843Z,100891.98
2019-02-04T09:36:20.852Z,100894.45
2019-02-04T09:40:44.040Z,100896.42
2019-02-04T09:44:46.756Z,100900.63
2019-02-04T09:48:49.473Z,100909.81
2019-02-04T09:52:52.509Z,100917.71
2019-02-04T09:56:55.622Z,100918.59
2019-02-04T10:00:58.742Z,100910.45
2019-02-04T10:05:01.986Z,100913.00
2019-02-04T10:09:06.314Z,100912.70
2019-02-04T10:13:10.402Z,100914.28
2019-02-04T10:17:13.113Z,100915.00
2019-02-04T10:21:16.003Z,100912.89
2019-02-04T10:25:21.142Z,100911.47
2019-02-04T10:29:24.183Z,100914.03
2019-02-04T10:33:27.047Z,100909.59
2019-02-04T10:37:29.792Z,100919.59
2019-02-04T10:41:32.799Z,100912.19
2019-02-04T10:45:35.630Z,100907.20
2019-02-04T10:49:38.447Z,100909.28
2019-02-04T10:53:41.175Z,100906.25
2019-02-04T10:57:44.348Z,100908.72
2019-02-04T11:01:47.330Z,100903.95
2019-02-04T11:05:50.287Z,100910.97
2019-02-04T11:09:54.533Z,100910.31
2019-02-04T11:13:57.262Z,100912.00
2019-02-04T11:18:00.602Z,100905.61
2019-02-04T11:22:03.434Z,100904.23
2019-02-04T11:26:06.569Z,100909.66
2019-02-04T11:30:15.343Z,100912.19
2019-02-04T11:34:18.282Z,100920.38
2019-02-04T11:38:21.068Z,100919.80
2019-02-04T11:42:23.847Z,100915.16
2019-02-04T11:46:26.687Z,100915.35
2019-02-04T11:50:29.801Z,100916.33
2019-02-04T11:54:32.562Z,100914.54
2019-02-04T11:58:35.543Z,100915.63
2019-02-04T12:02:39.253Z,100915.22
2019-02-04T12:06:41.928Z,100918.87
2019-02-04T12:10:48.508Z,100925.76
2019-02-04T12:14:51.138Z,100936.77
2019-02-04T12:18:54.102Z,100933.70
2019-02-04T12:22:57.021Z,100943.34
2019-02-04T12:26:59.903Z,100947.73
2019-02-04T12:31:02.705Z,100941.89
2019-02-04T12:35:06.564Z,100951.56
2019-02-04T12:39:18.382Z,100953.28
2019-02-04T12:43:21.449Z,100962.09
2019-02-04T12:47:24.167Z,100980.03
2019-02-04T12:51:33.802Z,100973.05
2019-02-04T12:55:32.615Z,100985.09
2019-02-04T12:59:35.074Z,100982.95
2019-02-04T13:03:37.860Z,100982.09
2019-02-04T13:07:40.767Z,100980.79
2019-02-04T13:11:43.528Z,100983.70
2019-02-04T13:15:48.313Z,100986.11
2019-02-04T13:19:50.949Z,100991.57
2019-02-04T13:23:53.723Z,101000.45
2019-02-04T13:27:56.478Z,101000.93
2019-02-04T13:31:59.362Z,100999.45
2019-02-04T13:36:02.835Z,101011.16
2019-02-04T13:40:07.183Z,101010.67
2019-02-04T13:44:10.098Z,101017.82
2019-02-04T13:48:12.914Z,101026.53
2019-02-04T13:52:15.624Z,101026.85
2019-02-04T13:56:18.309Z,101034.73
2019-02-04T14:00:21.268Z,101034.73
2019-02-04T14:04:24.189Z,101032.69
2019-02-04T14:08:27.147Z,101042.61
2019-02-04T14:12:29.990Z,101045.22
2019-02-04T14:16:32.714Z,101051.23
2019-02-04T14:20:35.761Z,101056.48
2019-02-04T14:24:38.403Z,101061.33
2019-02-04T14:28:41.590Z,101070.05
2019-02-04T14:32:44.396Z,101072.72
2019-02-04T14:36:47.238Z,101076.66
2019-02-04T14:40:50.235Z,101089.70
2019-02-04T14:45:12.200Z,101087.53
2019-02-04T14:49:43.038Z,101087.09
2019-02-04T14:54:15.284Z,101088.91
2019-02-04T14:58:45.442Z,101094.97
2019-02-04T15:03:19.208Z,101087.22
2019-02-04T15:07:47.042Z,101081.73
2019-02-04T15:12:24.053Z,101085.70
2019-02-04T15:16:56.739Z,101089.20
2019-02-04T15:21:22.312Z,101100.49
2019-02-04T15:25:42.368Z,101092.83
2019-02-04T15:29:49.225Z,101102.39
2019-02-04T15:34:17.028Z,101101.95
2019-02-04T15:38:44.192Z,101114.20
2019-02-04T15:43:16.601Z,101114.69
2019-02-04T15:47:28.639Z,101119.48
2019-02-04T15:51:38.983Z,101127.18
2019-02-04T15:55:41.809Z,101126.34
2019-02-04T15:59:44.523Z,101135.81
2019-02-04T16:03:47.454Z,101134.08
2019-02-04T16:07:50.264Z,101138.34
2019-02-04T16:11:53.168Z,101134.02
2019-02-04T16:15:55.878Z,101147.00
2019-02-04T16:19:58.648Z,101147.87
2019-02-04T16:24:01.730Z,101145.70
2019-02-04T16:28:04.586Z,101150.03
2019-02-04T16:32:08.013Z,101154.80
2019-02-04T16:36:10.833Z,101152.17
2019-02-04T16:40:15.638Z,101161.69
2019-02-04T16:44:18.423Z,101156.93
2019-02-04T16:48:21.202Z,101161.66
2019-02-04T16:52:24.073Z,101159.06
2019-02-04T16:56:27.040Z,101162.06
2019-02-04T17:00:31.370Z,101167.26
2019-02-04T17:04:34.058Z,101160.30
2019-02-04T17:08:37.268Z,101164.60
2019-02-04T17:12:40.140Z,101172.39
2019-02-04T17:16:42.970Z,101169.33
2019-02-04T17:20:46.908Z,101174.96
2019-02-04T17:24:49.706Z,101173.23
2019-02-04T17:28:54.713Z,101177.56
2019-02-04T17:32:57.633Z,101187.09
2019-02-04T17:37:00.518Z,101185.36
2019-02-04T17:41:03.704Z,101199.18
2019-02-04T17:45:08.053Z,101188.76
2019-02-04T17:49:10.936Z,101199.58
2019-02-04T17:53:13.879Z,101212.14
2019-02-04T17:57:16.661Z,101214.73
2019-02-04T18:01:19.476Z,101212.11
2019-02-04T18:05:22.244Z,101218.61
2019-02-04T18:09:24.982Z,101213.84
2019-02-04T18:13:27.768Z,101216.41
2019-02-04T18:17:30.443Z,101228.57
2019-02-04T18:21:33.192Z,101231.54
2019-02-04T18:25:36.043Z,101240.61
2019-02-04T18:29:39.006Z,101231.08
2019-02-04T18:33:42.210Z,101222.38
2019-02-04T18:37:45.263Z,101226.69
2019-02-04T18:41:47.991Z,101224.52
2019-02-04T18:45:50.982Z,101234.45
2019-02-04T18:49:53.873Z,101241.32
2019-02-04T18:53:58.006Z,101243.92
2019-02-04T18:58:01.031Z,101239.12
2019-02-04T19:02:05.766Z,101249.49
2019-02-04T19:06:08.566Z,101244.30
2019-02-04T19:10:12.371Z,101248.19
2019-02-04T19:14:15.166Z,101258.13
2019-02-04T19:18:18.954Z,101259.39
2019-02-04T19:22:21.801Z,101258.96
2019-02-04T19:26:24.896Z,101261.06
2019-02-04T19:30:39.882Z,101268.00
2019-02-04T19:34:44.027Z,101271.87
2019-02-04T19:38:46.851Z,101269.23
2019-02-04T19:42:49.748Z,101254.03
2019-02-04T19:46:52.459Z,101255.66
2019-02-04T19:50:55.484Z,101259.09
2019-02-04T19:54:59.785Z,101255.16
2019-02-04T19:59:02.770Z,101262.93
2019-02-04T20:03:05.730Z,101253.36
2019-02-04T20:07:08.664Z,101245.95
2019-02-04T20:11:11.575Z,101247.21
2019-02-04T20:15:17.450Z,101249.34
2019-02-04T20:19:20.665Z,101259.24
2019-02-04T20:23:23.608Z,101250.97
2019-02-04T20:27:27.218Z,101256.56
2019-02-04T20:31:30.064Z,101266.07
2019-02-04T20:35:32.800Z,101258.66
2019-02-04T20:39:35.715Z,101264.69
2019-02-04T20:43:38.439Z,101260.75
2019-02-04T20:47:41.595Z,101262.44
2019-02-04T20:51:44.358Z,101257.63
2019-02-04T20:55:47.358Z,101254.94
2019-02-04T20:59:50.130Z,101256.64
2019-02-04T21:03:52.966Z,101255.30
2019-02-04T21:07:55.827Z,101264.80
2019-02-04T21:11:58.803Z,101260.84
2019-02-04T21:16:01.569Z,101258.20
2019-02-04T21:20:06.843Z,101262.50
2019-02-04T21:24:09.605Z,101258.98
2019-02-04T21:28:12.477Z,101262.84
2019-02-04T21:32:15.644Z,101255.86
2019-02-04T21:36:19.107Z,101259.28
2019-02-04T21:40:22.648Z,101261.22
2019-02-04T21:44:25.507Z,101263.78
2019-02-04T21:48:28.258Z,101267.16
2019-02-04T21:52:31.152Z,101265.38
2019-02-04T21:56:34.058Z,101260.50
2019-02-04T22:00:39.074Z,101262.62
2019-02-04T22:04:41.910Z,101255.56
2019-02-04T22:08:44.829Z,101258.47
2019-02-04T22:12:47.680Z,101251.89
2019-02-04T22:16:50.520Z,101236.20
2019-02-04T22:20:53.487Z,101234.02
2019-02-04T22:24:56.413Z,101236.69
2019-02-04T22:28:59.507Z,101237.50
2019-02-04T22:33:02.448Z,101233.49
2019-02-04T22:37:05.303Z,101234.78
2019-02-04T22:41:09.743Z,101232.61
2019-02-04T22:45:13.053Z,101220.40
2019-02-04T22:49:15.960Z,101231.64
2019-02-04T22:53:18.813Z,101234.29
2019-02-04T22:57:21.796Z,101232.02
2019-02-04T23:01:39.959Z,101234.18
2019-02-04T23:05:43.020Z,101230.27
2019-02-04T23:09:45.879Z,101226.41
2019-02-04T23:13:48.547Z,101225.17
2019-02-04T23:17:52.446Z,101226.05
2019-02-04T23:21:55.212Z,101217.80
2019-02-04T23:25:57.987Z,101219.53
2019-02-04T23:30:01.086Z,101222.14
2019-02-04T23:34:04.061Z,101213.99
2019-02-04T23:38:08.396Z,101213.06
2019-02-04T23:42:11.569Z,101216.48
2019-02-04T23:46:14.516Z,101211.66
2019-02-04T23:50:17.456Z,101205.07
2019-02-04T23:54:20.279Z,101202.83
2019-02-04T23:58:23.045Z,101203.17
